sensor_id;sensor_type;location;lat;lon;timestamp;temperature;humidity
8095;DHT22;4090;49.270;8.696;2022-08-01T00:02:36;26.40;73.70
8095;DHT22;4090;49.270;8.696;2022-08-01T00:05:19;26.40;74.00
8095;DHT22;4090;49.270;8.696;2022-08-01T00:08:01;26.30;74.10
8095;DHT22;4090;49.270;8.696;2022-08-01T00:10:42;26.30;74.30
8095;DHT22;4090;49.270;8.696;2022-08-01T00:13:24;26.30;74.70
8095;DHT22;4090;49.270;8.696;2022-08-01T00:16:08;26.20;75.00
8095;DHT22;4090;49.270;8.696;2022-08-01T00:18:49;26.20;75.00
8095;DHT22;4090;49.270;8.696;2022-08-01T00:21:31;26.10;75.00
8095;DHT22;4090;49.270;8.696;2022-08-01T00:24:13;26.10;75.00
8095;DHT22;4090;49.270;8.696;2022-08-01T00:26:55;26.10;74.80
8095;DHT22;4090;49.270;8.696;2022-08-01T00:29:37;26.00;75.20
8095;DHT22;4090;49.270;8.696;2022-08-01T00:32:20;26.00;75.00
8095;DHT22;4090;49.270;8.696;2022-08-01T00:35:02;26.00;75.00
8095;DHT22;4090;49.270;8.696;2022-08-01T00:37:44;25.90;75.30
8095;DHT22;4090;49.270;8.696;2022-08-01T00:40:26;25.80;75.40
8095;DHT22;4090;49.270;8.696;2022-08-01T00:43:08;25.80;75.80
8095;DHT22;4090;49.270;8.696;2022-08-01T00:45:50;25.80;76.20
8095;DHT22;4090;49.270;8.696;2022-08-01T00:48:33;25.70;76.20
8095;DHT22;4090;49.270;8.696;2022-08-01T00:51:16;25.70;76.30
8095;DHT22;4090;49.270;8.696;2022-08-01T00:53:59;25.70;77.60
8095;DHT22;4090;49.270;8.696;2022-08-01T00:56:41;25.60;77.00
8095;DHT22;4090;49.270;8.696;2022-08-01T00:59:23;25.60;77.20
8095;DHT22;4090;49.270;8.696;2022-08-01T01:02:05;25.70;77.30
8095;DHT22;4090;49.270;8.696;2022-08-01T01:04:48;25.60;77.50
8095;DHT22;4090;49.270;8.696;2022-08-01T01:07:34;25.70;77.70
8095;DHT22;4090;49.270;8.696;2022-08-01T01:10:30;25.70;77.60
8095;DHT22;4090;49.270;8.696;2022-08-01T01:13:20;25.60;77.90
8095;DHT22;4090;49.270;8.696;2022-08-01T01:16:08;25.60;78.30
8095;DHT22;4090;49.270;8.696;2022-08-01T01:18:54;25.60;78.60
8095;DHT22;4090;49.270;8.696;2022-08-01T01:21:53;25.60;78.70
8095;DHT22;4090;49.270;8.696;2022-08-01T01:24:45;25.60;79.00
8095;DHT22;4090;49.270;8.696;2022-08-01T01:27:36;25.60;79.30
8095;DHT22;4090;49.270;8.696;2022-08-01T01:30:24;25.50;79.20
8095;DHT22;4090;49.270;8.696;2022-08-01T01:33:08;25.40;79.80
8095;DHT22;4090;49.270;8.696;2022-08-01T01:35:53;25.40;80.00
8095;DHT22;4090;49.270;8.696;2022-08-01T01:38:41;25.40;80.50
8095;DHT22;4090;49.270;8.696;2022-08-01T01:41:24;25.40;80.70
8095;DHT22;4090;49.270;8.696;2022-08-01T01:44:08;25.40;81.20
8095;DHT22;4090;49.270;8.696;2022-08-01T01:46:53;25.40;81.50
8095;DHT22;4090;49.270;8.696;2022-08-01T01:49:37;25.30;82.00
8095;DHT22;4090;49.270;8.696;2022-08-01T01:52:21;25.30;82.30
8095;DHT22;4090;49.270;8.696;2022-08-01T01:55:06;25.30;82.60
8095;DHT22;4090;49.270;8.696;2022-08-01T01:57:50;25.20;82.80
8095;DHT22;4090;49.270;8.696;2022-08-01T02:00:33;25.30;83.40
8095;DHT22;4090;49.270;8.696;2022-08-01T02:03:17;25.20;83.30
8095;DHT22;4090;49.270;8.696;2022-08-01T02:06:01;25.20;83.60
8095;DHT22;4090;49.270;8.696;2022-08-01T02:08:45;25.20;83.70
8095;DHT22;4090;49.270;8.696;2022-08-01T02:11:27;25.20;83.60
8095;DHT22;4090;49.270;8.696;2022-08-01T02:14:10;25.10;83.90
8095;DHT22;4090;49.270;8.696;2022-08-01T02:16:54;25.10;84.40
8095;DHT22;4090;49.270;8.696;2022-08-01T02:19:39;25.10;84.80
8095;DHT22;4090;49.270;8.696;2022-08-01T02:22:26;25.10;84.80
8095;DHT22;4090;49.270;8.696;2022-08-01T02:25:12;25.00;85.00
8095;DHT22;4090;49.270;8.696;2022-08-01T02:28:03;25.00;85.30
8095;DHT22;4090;49.270;8.696;2022-08-01T02:30:47;24.90;85.40
8095;DHT22;4090;49.270;8.696;2022-08-01T02:33:34;25.00;85.60
8095;DHT22;4090;49.270;8.696;2022-08-01T02:36:19;24.90;85.80
8095;DHT22;4090;49.270;8.696;2022-08-01T02:39:06;24.90;86.10
8095;DHT22;4090;49.270;8.696;2022-08-01T02:41:55;24.90;86.20
8095;DHT22;4090;49.270;8.696;2022-08-01T02:44:41;24.80;86.50
8095;DHT22;4090;49.270;8.696;2022-08-01T02:47:25;24.80;86.90
8095;DHT22;4090;49.270;8.696;2022-08-01T02:50:10;24.70;86.90
8095;DHT22;4090;49.270;8.696;2022-08-01T02:52:55;24.60;87.10
8095;DHT22;4090;49.270;8.696;2022-08-01T02:55:39;24.60;87.80
8095;DHT22;4090;49.270;8.696;2022-08-01T02:58:22;24.60;88.30
8095;DHT22;4090;49.270;8.696;2022-08-01T03:01:06;24.60;88.40
8095;DHT22;4090;49.270;8.696;2022-08-01T03:03:49;24.50;88.60
8095;DHT22;4090;49.270;8.696;2022-08-01T03:06:31;24.50;88.70
8095;DHT22;4090;49.270;8.696;2022-08-01T03:09:15;24.50;88.90
8095;DHT22;4090;49.270;8.696;2022-08-01T03:12:01;24.50;88.90
8095;DHT22;4090;49.270;8.696;2022-08-01T03:14:46;24.40;89.10
8095;DHT22;4090;49.270;8.696;2022-08-01T03:17:29;24.40;89.40
8095;DHT22;4090;49.270;8.696;2022-08-01T03:20:14;24.30;89.70
8095;DHT22;4090;49.270;8.696;2022-08-01T03:22:57;24.30;90.00
8095;DHT22;4090;49.270;8.696;2022-08-01T03:25:44;24.30;90.00
8095;DHT22;4090;49.270;8.696;2022-08-01T03:28:26;24.20;90.20
8095;DHT22;4090;49.270;8.696;2022-08-01T03:31:09;24.20;90.40
8095;DHT22;4090;49.270;8.696;2022-08-01T03:33:52;24.20;90.60
8095;DHT22;4090;49.270;8.696;2022-08-01T03:36:39;24.20;90.60
8095;DHT22;4090;49.270;8.696;2022-08-01T03:39:28;24.20;90.60
8095;DHT22;4090;49.270;8.696;2022-08-01T03:42:16;24.20;90.70
8095;DHT22;4090;49.270;8.696;2022-08-01T03:45:03;24.20;90.70
8095;DHT22;4090;49.270;8.696;2022-08-01T03:47:47;24.20;90.90
8095;DHT22;4090;49.270;8.696;2022-08-01T03:50:31;24.20;91.00
8095;DHT22;4090;49.270;8.696;2022-08-01T03:53:16;24.10;91.10
8095;DHT22;4090;49.270;8.696;2022-08-01T03:56:03;24.10;91.20
8095;DHT22;4090;49.270;8.696;2022-08-01T03:58:49;24.10;91.40
8095;DHT22;4090;49.270;8.696;2022-08-01T04:01:32;24.10;91.60
8095;DHT22;4090;49.270;8.696;2022-08-01T04:04:15;24.10;91.60
8095;DHT22;4090;49.270;8.696;2022-08-01T04:06:56;24.00;91.50
8095;DHT22;4090;49.270;8.696;2022-08-01T04:09:44;24.00;91.80
8095;DHT22;4090;49.270;8.696;2022-08-01T04:12:26;24.00;91.90
8095;DHT22;4090;49.270;8.696;2022-08-01T04:15:09;24.00;91.90
8095;DHT22;4090;49.270;8.696;2022-08-01T04:17:51;24.00;92.00
8095;DHT22;4090;49.270;8.696;2022-08-01T04:20:34;23.90;92.10
8095;DHT22;4090;49.270;8.696;2022-08-01T04:23:17;23.90;92.20
8095;DHT22;4090;49.270;8.696;2022-08-01T04:26:03;23.90;92.40
8095;DHT22;4090;49.270;8.696;2022-08-01T04:28:46;23.90;92.50
8095;DHT22;4090;49.270;8.696;2022-08-01T04:31:32;23.90;92.40
8095;DHT22;4090;49.270;8.696;2022-08-01T04:34:19;23.90;92.70
8095;DHT22;4090;49.270;8.696;2022-08-01T04:37:02;23.90;92.80
8095;DHT22;4090;49.270;8.696;2022-08-01T04:39:46;23.90;92.90
8095;DHT22;4090;49.270;8.696;2022-08-01T04:42:28;23.90;93.00
8095;DHT22;4090;49.270;8.696;2022-08-01T04:45:10;23.80;93.10
8095;DHT22;4090;49.270;8.696;2022-08-01T04:47:54;23.80;93.30
8095;DHT22;4090;49.270;8.696;2022-08-01T04:50:38;23.80;93.40
8095;DHT22;4090;49.270;8.696;2022-08-01T04:53:22;23.80;93.50
8095;DHT22;4090;49.270;8.696;2022-08-01T04:56:04;23.70;93.70
8095;DHT22;4090;49.270;8.696;2022-08-01T04:58:47;23.70;94.00
8095;DHT22;4090;49.270;8.696;2022-08-01T05:01:49;23.70;94.20
8095;DHT22;4090;49.270;8.696;2022-08-01T05:04:33;23.70;94.50
8095;DHT22;4090;49.270;8.696;2022-08-01T05:07:15;23.70;94.60
8095;DHT22;4090;49.270;8.696;2022-08-01T05:09:57;23.70;94.80
8095;DHT22;4090;49.270;8.696;2022-08-01T05:12:39;23.70;95.00
8095;DHT22;4090;49.270;8.696;2022-08-01T05:15:21;23.70;95.00
8095;DHT22;4090;49.270;8.696;2022-08-01T05:18:03;23.70;95.10
8095;DHT22;4090;49.270;8.696;2022-08-01T05:20:46;23.70;95.30
8095;DHT22;4090;49.270;8.696;2022-08-01T05:23:28;23.70;95.50
8095;DHT22;4090;49.270;8.696;2022-08-01T05:26:10;23.80;95.60
8095;DHT22;4090;49.270;8.696;2022-08-01T05:28:54;23.80;95.80
8095;DHT22;4090;49.270;8.696;2022-08-01T05:31:36;23.70;95.90
8095;DHT22;4090;49.270;8.696;2022-08-01T05:34:18;23.70;96.00
8095;DHT22;4090;49.270;8.696;2022-08-01T05:37:01;23.70;96.30
8095;DHT22;4090;49.270;8.696;2022-08-01T05:39:43;23.70;96.50
8095;DHT22;4090;49.270;8.696;2022-08-01T05:42:25;23.70;96.70
8095;DHT22;4090;49.270;8.696;2022-08-01T05:45:08;23.70;96.90
8095;DHT22;4090;49.270;8.696;2022-08-01T05:47:50;23.80;97.10
8095;DHT22;4090;49.270;8.696;2022-08-01T05:50:32;23.80;97.20
8095;DHT22;4090;49.270;8.696;2022-08-01T05:53:16;23.80;97.30
8095;DHT22;4090;49.270;8.696;2022-08-01T05:55:58;23.80;97.50
8095;DHT22;4090;49.270;8.696;2022-08-01T05:58:39;23.90;97.70
8095;DHT22;4090;49.270;8.696;2022-08-01T06:01:21;23.90;97.80
8095;DHT22;4090;49.270;8.696;2022-08-01T06:04:03;23.90;98.10
8095;DHT22;4090;49.270;8.696;2022-08-01T06:06:45;23.90;98.10
8095;DHT22;4090;49.270;8.696;2022-08-01T06:09:28;24.00;98.20
8095;DHT22;4090;49.270;8.696;2022-08-01T06:12:11;24.00;98.30
8095;DHT22;4090;49.270;8.696;2022-08-01T06:14:53;24.00;98.30
8095;DHT22;4090;49.270;8.696;2022-08-01T06:17:34;24.00;98.40
8095;DHT22;4090;49.270;8.696;2022-08-01T06:20:16;24.00;98.50
8095;DHT22;4090;49.270;8.696;2022-08-01T06:22:58;24.00;98.80
8095;DHT22;4090;49.270;8.696;2022-08-01T06:25:41;24.10;98.70
8095;DHT22;4090;49.270;8.696;2022-08-01T06:28:23;24.10;98.60
8095;DHT22;4090;49.270;8.696;2022-08-01T06:31:05;24.20;98.60
8095;DHT22;4090;49.270;8.696;2022-08-01T06:33:47;24.20;98.70
8095;DHT22;4090;49.270;8.696;2022-08-01T06:36:29;24.20;98.30
8095;DHT22;4090;49.270;8.696;2022-08-01T06:39:10;24.20;98.10
8095;DHT22;4090;49.270;8.696;2022-08-01T06:41:54;24.30;98.10
8095;DHT22;4090;49.270;8.696;2022-08-01T06:44:35;24.30;97.70
8095;DHT22;4090;49.270;8.696;2022-08-01T06:47:17;24.40;97.70
8095;DHT22;4090;49.270;8.696;2022-08-01T06:49:59;24.40;97.40
8095;DHT22;4090;49.270;8.696;2022-08-01T06:52:41;24.40;97.30
8095;DHT22;4090;49.270;8.696;2022-08-01T06:55:23;24.40;97.10
8095;DHT22;4090;49.270;8.696;2022-08-01T06:58:06;24.50;97.10
8095;DHT22;4090;49.270;8.696;2022-08-01T07:00:48;24.50;97.10
8095;DHT22;4090;49.270;8.696;2022-08-01T07:03:30;24.50;97.10
8095;DHT22;4090;49.270;8.696;2022-08-01T07:06:12;24.60;96.90
8095;DHT22;4090;49.270;8.696;2022-08-01T07:08:55;24.60;96.60
8095;DHT22;4090;49.270;8.696;2022-08-01T07:11:37;24.60;96.60
8095;DHT22;4090;49.270;8.696;2022-08-01T07:14:21;24.60;96.30
8095;DHT22;4090;49.270;8.696;2022-08-01T07:17:03;24.60;96.20
8095;DHT22;4090;49.270;8.696;2022-08-01T07:19:45;24.70;96.00
8095;DHT22;4090;49.270;8.696;2022-08-01T07:22:26;24.70;96.30
8095;DHT22;4090;49.270;8.696;2022-08-01T07:25:09;24.70;96.10
8095;DHT22;4090;49.270;8.696;2022-08-01T07:27:51;24.70;96.30
8095;DHT22;4090;49.270;8.696;2022-08-01T07:30:34;24.80;96.40
8095;DHT22;4090;49.270;8.696;2022-08-01T07:33:16;24.80;96.30
8095;DHT22;4090;49.270;8.696;2022-08-01T07:35:58;24.80;96.20
8095;DHT22;4090;49.270;8.696;2022-08-01T07:38:39;24.80;95.80
8095;DHT22;4090;49.270;8.696;2022-08-01T07:41:21;24.90;95.50
8095;DHT22;4090;49.270;8.696;2022-08-01T07:44:03;24.90;95.70
8095;DHT22;4090;49.270;8.696;2022-08-01T07:46:46;24.90;95.70
8095;DHT22;4090;49.270;8.696;2022-08-01T07:49:28;24.90;95.60
8095;DHT22;4090;49.270;8.696;2022-08-01T07:52:10;24.90;95.90
8095;DHT22;4090;49.270;8.696;2022-08-01T07:54:52;25.00;95.30
8095;DHT22;4090;49.270;8.696;2022-08-01T07:57:34;25.00;95.20
8095;DHT22;4090;49.270;8.696;2022-08-01T08:00:17;25.10;95.40
8095;DHT22;4090;49.270;8.696;2022-08-01T08:03:00;25.10;95.40
8095;DHT22;4090;49.270;8.696;2022-08-01T08:05:42;25.10;95.10
8095;DHT22;4090;49.270;8.696;2022-08-01T08:08:24;25.10;95.00
8095;DHT22;4090;49.270;8.696;2022-08-01T08:11:06;25.20;95.00
8095;DHT22;4090;49.270;8.696;2022-08-01T08:13:48;25.20;94.90
8095;DHT22;4090;49.270;8.696;2022-08-01T08:16:30;25.30;95.00
8095;DHT22;4090;49.270;8.696;2022-08-01T08:19:13;25.30;94.80
8095;DHT22;4090;49.270;8.696;2022-08-01T08:21:55;25.30;94.70
8095;DHT22;4090;49.270;8.696;2022-08-01T08:24:37;25.30;94.70
8095;DHT22;4090;49.270;8.696;2022-08-01T08:27:19;25.30;94.80
8095;DHT22;4090;49.270;8.696;2022-08-01T08:30:01;25.30;94.60
8095;DHT22;4090;49.270;8.696;2022-08-01T08:32:43;25.40;94.70
8095;DHT22;4090;49.270;8.696;2022-08-01T08:35:26;25.40;94.60
8095;DHT22;4090;49.270;8.696;2022-08-01T08:38:08;25.40;94.70
8095;DHT22;4090;49.270;8.696;2022-08-01T08:40:50;25.40;94.50
8095;DHT22;4090;49.270;8.696;2022-08-01T08:43:32;25.40;94.30
8095;DHT22;4090;49.270;8.696;2022-08-01T08:46:14;25.50;94.20
8095;DHT22;4090;49.270;8.696;2022-08-01T08:48:58;25.50;94.20
8095;DHT22;4090;49.270;8.696;2022-08-01T08:51:42;25.50;93.70
8095;DHT22;4090;49.270;8.696;2022-08-01T08:54:25;25.50;93.80
8095;DHT22;4090;49.270;8.696;2022-08-01T08:57:08;25.50;94.40
8095;DHT22;4090;49.270;8.696;2022-08-01T08:59:51;25.60;95.20
8095;DHT22;4090;49.270;8.696;2022-08-01T09:02:34;25.60;94.50
8095;DHT22;4090;49.270;8.696;2022-08-01T09:05:16;25.70;94.10
8095;DHT22;4090;49.270;8.696;2022-08-01T09:08:08;25.70;94.10
8095;DHT22;4090;49.270;8.696;2022-08-01T09:10:50;25.70;94.00
8095;DHT22;4090;49.270;8.696;2022-08-01T09:13:32;25.70;94.20
8095;DHT22;4090;49.270;8.696;2022-08-01T09:16:16;25.70;94.10
8095;DHT22;4090;49.270;8.696;2022-08-01T09:19:07;25.80;94.10
8095;DHT22;4090;49.270;8.696;2022-08-01T09:21:56;25.90;93.70
8095;DHT22;4090;49.270;8.696;2022-08-01T09:24:41;25.90;93.30
8095;DHT22;4090;49.270;8.696;2022-08-01T09:27:23;25.90;92.90
8095;DHT22;4090;49.270;8.696;2022-08-01T09:30:11;25.90;92.80
8095;DHT22;4090;49.270;8.696;2022-08-01T09:32:55;26.00;92.60
8095;DHT22;4090;49.270;8.696;2022-08-01T09:35:37;26.00;92.40
8095;DHT22;4090;49.270;8.696;2022-08-01T09:38:25;26.00;92.40
8095;DHT22;4090;49.270;8.696;2022-08-01T09:41:09;26.00;92.00
8095;DHT22;4090;49.270;8.696;2022-08-01T09:43:51;26.10;92.20
8095;DHT22;4090;49.270;8.696;2022-08-01T09:46:33;26.20;92.40
8095;DHT22;4090;49.270;8.696;2022-08-01T09:49:27;26.20;92.10
8095;DHT22;4090;49.270;8.696;2022-08-01T09:52:11;26.20;92.10
8095;DHT22;4090;49.270;8.696;2022-08-01T09:54:55;26.30;92.10
8095;DHT22;4090;49.270;8.696;2022-08-01T09:57:38;26.30;91.70
8095;DHT22;4090;49.270;8.696;2022-08-01T10:00:20;26.40;91.90
8095;DHT22;4090;49.270;8.696;2022-08-01T10:03:19;26.50;92.00
8095;DHT22;4090;49.270;8.696;2022-08-01T10:06:18;26.50;91.90
8095;DHT22;4090;49.270;8.696;2022-08-01T10:09:01;26.60;91.90
8095;DHT22;4090;49.270;8.696;2022-08-01T10:11:43;26.60;91.30
8095;DHT22;4090;49.270;8.696;2022-08-01T10:14:28;26.60;91.00
8095;DHT22;4090;49.270;8.696;2022-08-01T10:17:13;26.70;91.00
8095;DHT22;4090;49.270;8.696;2022-08-01T10:19:55;26.70;91.00
8095;DHT22;4090;49.270;8.696;2022-08-01T10:22:38;26.70;90.50
8095;DHT22;4090;49.270;8.696;2022-08-01T10:25:21;26.70;90.30
8095;DHT22;4090;49.270;8.696;2022-08-01T10:28:08;26.80;90.30
8095;DHT22;4090;49.270;8.696;2022-08-01T10:30:53;26.90;90.40
8095;DHT22;4090;49.270;8.696;2022-08-01T10:33:35;26.90;90.40
8095;DHT22;4090;49.270;8.696;2022-08-01T10:36:20;26.80;90.20
8095;DHT22;4090;49.270;8.696;2022-08-01T10:39:05;26.80;90.40
8095;DHT22;4090;49.270;8.696;2022-08-01T10:41:47;26.90;90.50
8095;DHT22;4090;49.270;8.696;2022-08-01T10:44:30;26.90;90.30
8095;DHT22;4090;49.270;8.696;2022-08-01T10:47:17;26.90;90.40
8095;DHT22;4090;49.270;8.696;2022-08-01T10:50:03;27.00;90.40
8095;DHT22;4090;49.270;8.696;2022-08-01T10:56:03;27.00;90.40
8095;DHT22;4090;49.270;8.696;2022-08-01T10:58:47;27.10;90.30
8095;DHT22;4090;49.270;8.696;2022-08-01T11:01:30;27.10;90.30
8095;DHT22;4090;49.270;8.696;2022-08-01T11:04:14;27.10;90.20
8095;DHT22;4090;49.270;8.696;2022-08-01T11:07:04;27.10;90.10
8095;DHT22;4090;49.270;8.696;2022-08-01T11:09:50;27.20;90.20
8095;DHT22;4090;49.270;8.696;2022-08-01T11:12:41;27.20;89.80
8095;DHT22;4090;49.270;8.696;2022-08-01T11:15:24;27.20;89.80
8095;DHT22;4090;49.270;8.696;2022-08-01T11:18:29;27.20;89.40
8095;DHT22;4090;49.270;8.696;2022-08-01T11:21:13;27.30;89.90
8095;DHT22;4090;49.270;8.696;2022-08-01T11:23:56;27.40;89.60
8095;DHT22;4090;49.270;8.696;2022-08-01T11:26:37;27.50;90.00
8095;DHT22;4090;49.270;8.696;2022-08-01T11:29:19;27.50;89.00
8095;DHT22;4090;49.270;8.696;2022-08-01T11:32:23;27.50;88.90
8095;DHT22;4090;49.270;8.696;2022-08-01T11:35:05;27.60;89.00
8095;DHT22;4090;49.270;8.696;2022-08-01T11:37:49;27.70;88.00
8095;DHT22;4090;49.270;8.696;2022-08-01T11:40:32;27.80;87.80
8095;DHT22;4090;49.270;8.696;2022-08-01T11:43:17;27.80;87.50
8095;DHT22;4090;49.270;8.696;2022-08-01T11:46:00;27.80;87.20
8095;DHT22;4090;49.270;8.696;2022-08-01T11:48:42;27.90;86.60
8095;DHT22;4090;49.270;8.696;2022-08-01T11:51:24;28.00;86.60
8095;DHT22;4090;49.270;8.696;2022-08-01T11:54:08;28.10;86.20
8095;DHT22;4090;49.270;8.696;2022-08-01T11:56:49;28.10;85.20
8095;DHT22;4090;49.270;8.696;2022-08-01T11:59:37;28.10;84.80
8095;DHT22;4090;49.270;8.696;2022-08-01T12:02:21;28.10;84.30
8095;DHT22;4090;49.270;8.696;2022-08-01T12:05:06;28.20;84.50
8095;DHT22;4090;49.270;8.696;2022-08-01T12:07:50;28.20;84.90
8095;DHT22;4090;49.270;8.696;2022-08-01T12:10:34;28.30;85.00
8095;DHT22;4090;49.270;8.696;2022-08-01T12:13:17;28.40;84.60
8095;DHT22;4090;49.270;8.696;2022-08-01T12:16:06;28.50;84.00
8095;DHT22;4090;49.270;8.696;2022-08-01T12:18:48;28.50;83.60
8095;DHT22;4090;49.270;8.696;2022-08-01T12:21:30;28.60;83.40
8095;DHT22;4090;49.270;8.696;2022-08-01T12:24:12;28.60;83.00
8095;DHT22;4090;49.270;8.696;2022-08-01T12:26:55;28.60;83.00
8095;DHT22;4090;49.270;8.696;2022-08-01T12:29:38;28.60;82.90
8095;DHT22;4090;49.270;8.696;2022-08-01T12:32:22;28.60;82.60
8095;DHT22;4090;49.270;8.696;2022-08-01T12:35:06;28.70;82.90
8095;DHT22;4090;49.270;8.696;2022-08-01T12:37:50;28.70;83.70
8095;DHT22;4090;49.270;8.696;2022-08-01T12:40:34;28.80;83.10
8095;DHT22;4090;49.270;8.696;2022-08-01T12:43:19;28.90;82.60
8095;DHT22;4090;49.270;8.696;2022-08-01T12:46:01;29.00;83.10
8095;DHT22;4090;49.270;8.696;2022-08-01T12:48:43;29.10;82.30
8095;DHT22;4090;49.270;8.696;2022-08-01T12:51:25;29.20;80.90
8095;DHT22;4090;49.270;8.696;2022-08-01T12:54:07;29.40;80.30
8095;DHT22;4090;49.270;8.696;2022-08-01T12:56:50;29.50;78.90
8095;DHT22;4090;49.270;8.696;2022-08-01T12:59:35;29.60;78.10
8095;DHT22;4090;49.270;8.696;2022-08-01T13:02:17;29.60;77.80
8095;DHT22;4090;49.270;8.696;2022-08-01T13:04:59;29.50;78.20
8095;DHT22;4090;49.270;8.696;2022-08-01T13:07:43;29.60;78.20
8095;DHT22;4090;49.270;8.696;2022-08-01T13:10:28;29.70;77.70
8095;DHT22;4090;49.270;8.696;2022-08-01T13:13:11;29.70;76.90
8095;DHT22;4090;49.270;8.696;2022-08-01T13:16:02;29.80;76.60
8095;DHT22;4090;49.270;8.696;2022-08-01T13:18:48;29.80;76.10
8095;DHT22;4090;49.270;8.696;2022-08-01T13:21:31;30.00;77.10
8095;DHT22;4090;49.270;8.696;2022-08-01T13:24:13;30.10;75.00
8095;DHT22;4090;49.270;8.696;2022-08-01T13:26:56;30.10;74.50
8095;DHT22;4090;49.270;8.696;2022-08-01T13:29:40;30.20;74.20
8095;DHT22;4090;49.270;8.696;2022-08-01T13:32:23;30.30;74.50
8095;DHT22;4090;49.270;8.696;2022-08-01T13:35:07;30.50;74.20
8095;DHT22;4090;49.270;8.696;2022-08-01T13:37:49;30.50;72.90
8095;DHT22;4090;49.270;8.696;2022-08-01T13:40:31;30.40;73.00
8095;DHT22;4090;49.270;8.696;2022-08-01T13:43:13;30.40;72.90
8095;DHT22;4090;49.270;8.696;2022-08-01T13:45:55;30.50;72.40
8095;DHT22;4090;49.270;8.696;2022-08-01T13:48:39;30.60;72.10
8095;DHT22;4090;49.270;8.696;2022-08-01T13:51:21;30.50;70.70
8095;DHT22;4090;49.270;8.696;2022-08-01T13:54:04;30.50;70.50
8095;DHT22;4090;49.270;8.696;2022-08-01T13:56:46;30.50;70.70
8095;DHT22;4090;49.270;8.696;2022-08-01T13:59:29;30.40;70.60
8095;DHT22;4090;49.270;8.696;2022-08-01T14:02:10;30.50;70.40
8095;DHT22;4090;49.270;8.696;2022-08-01T14:04:54;30.40;71.10
8095;DHT22;4090;49.270;8.696;2022-08-01T14:07:36;30.40;70.40
8095;DHT22;4090;49.270;8.696;2022-08-01T14:10:18;30.40;70.60
8095;DHT22;4090;49.270;8.696;2022-08-01T14:12:59;30.30;70.70
8095;DHT22;4090;49.270;8.696;2022-08-01T14:15:41;30.10;70.60
8095;DHT22;4090;49.270;8.696;2022-08-01T14:18:23;30.10;71.20
8095;DHT22;4090;49.270;8.696;2022-08-01T14:21:06;30.20;71.90
8095;DHT22;4090;49.270;8.696;2022-08-01T14:23:48;30.20;71.80
8095;DHT22;4090;49.270;8.696;2022-08-01T14:26:30;30.30;71.80
8095;DHT22;4090;49.270;8.696;2022-08-01T14:29:12;30.30;71.90
8095;DHT22;4090;49.270;8.696;2022-08-01T14:31:53;30.30;71.90
8095;DHT22;4090;49.270;8.696;2022-08-01T14:34:35;30.30;72.00
8095;DHT22;4090;49.270;8.696;2022-08-01T14:37:18;30.30;71.30
8095;DHT22;4090;49.270;8.696;2022-08-01T14:40:01;30.30;71.80
8095;DHT22;4090;49.270;8.696;2022-08-01T14:42:46;30.30;71.00
8095;DHT22;4090;49.270;8.696;2022-08-01T14:45:27;30.30;71.30
8095;DHT22;4090;49.270;8.696;2022-08-01T14:48:09;30.30;71.20
8095;DHT22;4090;49.270;8.696;2022-08-01T14:50:51;30.20;71.70
8095;DHT22;4090;49.270;8.696;2022-08-01T14:53:34;30.20;71.20
8095;DHT22;4090;49.270;8.696;2022-08-01T14:56:17;30.20;71.10
8095;DHT22;4090;49.270;8.696;2022-08-01T14:58:59;30.20;70.70
8095;DHT22;4090;49.270;8.696;2022-08-01T15:01:41;30.30;70.60
8095;DHT22;4090;49.270;8.696;2022-08-01T15:04:22;30.30;70.20
8095;DHT22;4090;49.270;8.696;2022-08-01T15:07:04;30.30;69.90
8095;DHT22;4090;49.270;8.696;2022-08-01T15:09:47;30.10;70.10
8095;DHT22;4090;49.270;8.696;2022-08-01T15:12:29;30.10;70.50
8095;DHT22;4090;49.270;8.696;2022-08-01T15:15:11;30.00;70.70
8095;DHT22;4090;49.270;8.696;2022-08-01T15:17:53;30.00;70.50
8095;DHT22;4090;49.270;8.696;2022-08-01T15:20:35;30.00;71.10
8095;DHT22;4090;49.270;8.696;2022-08-01T15:23:17;30.00;71.20
8095;DHT22;4090;49.270;8.696;2022-08-01T15:26:00;30.00;70.80
8095;DHT22;4090;49.270;8.696;2022-08-01T15:28:42;30.00;70.60
8095;DHT22;4090;49.270;8.696;2022-08-01T15:31:24;30.00;70.20
8095;DHT22;4090;49.270;8.696;2022-08-01T15:34:05;30.00;70.10
8095;DHT22;4090;49.270;8.696;2022-08-01T15:36:48;29.90;70.40
8095;DHT22;4090;49.270;8.696;2022-08-01T15:39:30;29.90;70.80
8095;DHT22;4090;49.270;8.696;2022-08-01T15:42:16;30.00;70.50
8095;DHT22;4090;49.270;8.696;2022-08-01T15:44:58;30.00;70.20
8095;DHT22;4090;49.270;8.696;2022-08-01T15:47:40;30.00;70.20
8095;DHT22;4090;49.270;8.696;2022-08-01T15:50:22;30.00;70.40
8095;DHT22;4090;49.270;8.696;2022-08-01T15:53:04;29.90;70.40
8095;DHT22;4090;49.270;8.696;2022-08-01T15:55:46;29.90;70.60
8095;DHT22;4090;49.270;8.696;2022-08-01T15:58:29;29.90;70.80
8095;DHT22;4090;49.270;8.696;2022-08-01T16:01:11;29.80;69.80
8095;DHT22;4090;49.270;8.696;2022-08-01T16:03:53;29.80;69.40
8095;DHT22;4090;49.270;8.696;2022-08-01T16:06:35;29.70;69.40
8095;DHT22;4090;49.270;8.696;2022-08-01T16:09:17;29.70;69.20
8095;DHT22;4090;49.270;8.696;2022-08-01T16:11:59;29.70;70.30
8095;DHT22;4090;49.270;8.696;2022-08-01T16:14:42;29.60;70.20
8095;DHT22;4090;49.270;8.696;2022-08-01T16:17:24;29.60;70.50
8095;DHT22;4090;49.270;8.696;2022-08-01T16:20:08;29.70;71.60
8095;DHT22;4090;49.270;8.696;2022-08-01T16:22:49;29.70;72.10
8095;DHT22;4090;49.270;8.696;2022-08-01T16:25:31;29.70;72.20
8095;DHT22;4090;49.270;8.696;2022-08-01T16:28:13;29.70;72.70
8095;DHT22;4090;49.270;8.696;2022-08-01T16:30:56;29.70;72.40
8095;DHT22;4090;49.270;8.696;2022-08-01T16:33:38;29.60;71.90
8095;DHT22;4090;49.270;8.696;2022-08-01T16:36:20;29.60;72.50
8095;DHT22;4090;49.270;8.696;2022-08-01T16:39:02;29.60;72.80
8095;DHT22;4090;49.270;8.696;2022-08-01T16:41:47;29.50;72.50
8095;DHT22;4090;49.270;8.696;2022-08-01T16:44:28;29.50;72.60
8095;DHT22;4090;49.270;8.696;2022-08-01T16:47:12;29.40;72.70
8095;DHT22;4090;49.270;8.696;2022-08-01T16:49:53;29.30;72.90
8095;DHT22;4090;49.270;8.696;2022-08-01T16:52:35;29.30;73.10
8095;DHT22;4090;49.270;8.696;2022-08-01T16:55:17;29.40;73.60
8095;DHT22;4090;49.270;8.696;2022-08-01T16:58:00;29.40;73.60
8095;DHT22;4090;49.270;8.696;2022-08-01T17:00:43;29.40;73.30
8095;DHT22;4090;49.270;8.696;2022-08-01T17:03:27;29.30;73.80
8095;DHT22;4090;49.270;8.696;2022-08-01T17:06:09;29.40;74.00
8095;DHT22;4090;49.270;8.696;2022-08-01T17:08:51;29.40;73.70
8095;DHT22;4090;49.270;8.696;2022-08-01T17:11:33;29.30;73.60
8095;DHT22;4090;49.270;8.696;2022-08-01T17:14:15;29.30;73.80
8095;DHT22;4090;49.270;8.696;2022-08-01T17:16:57;29.30;73.70
8095;DHT22;4090;49.270;8.696;2022-08-01T17:19:40;29.30;73.80
8095;DHT22;4090;49.270;8.696;2022-08-01T17:22:22;29.20;73.90
8095;DHT22;4090;49.270;8.696;2022-08-01T17:25:04;29.20;74.00
8095;DHT22;4090;49.270;8.696;2022-08-01T17:27:46;29.20;74.30
8095;DHT22;4090;49.270;8.696;2022-08-01T17:30:31;29.20;74.80
8095;DHT22;4090;49.270;8.696;2022-08-01T17:33:13;29.20;74.60
8095;DHT22;4090;49.270;8.696;2022-08-01T17:36:00;29.20;74.60
8095;DHT22;4090;49.270;8.696;2022-08-01T17:38:42;29.20;74.70
8095;DHT22;4090;49.270;8.696;2022-08-01T17:41:24;29.10;74.40
8095;DHT22;4090;49.270;8.696;2022-08-01T17:44:06;29.10;74.50
8095;DHT22;4090;49.270;8.696;2022-08-01T17:46:48;29.10;74.90
8095;DHT22;4090;49.270;8.696;2022-08-01T17:49:30;29.10;75.10
8095;DHT22;4090;49.270;8.696;2022-08-01T17:52:13;29.10;74.90